sensor_id;sensor_type;location;lat;lon;timestamp;pressure;altitude;pressure_sealevel;temperature;humidity
70521;BME280;58442;52.716;23.560;2023-08-07T00:00:01;99495.68;;;21.83;71.31
70521;BME280;58442;52.716;23.560;2023-08-07T00:02:04;99508.41;;;21.80;71.31
70521;BME280;58442;52.716;23.560;2023-08-07T00:04:13;99503.34;;;21.79;71.35
70521;BME280;58442;52.716;23.560;2023-08-07T00:06:14;99507.34;;;21.78;71.42
70521;BME280;58442;52.716;23.560;2023-08-07T00:08:15;99517.29;;;21.75;71.50
70521;BME280;58442;52.716;23.560;2023-08-07T00:10:16;99518.52;;;21.74;71.52
70521;BME280;58442;52.716;23.560;2023-08-07T00:12:27;99512.20;;;21.74;71.56
70521;BME280;58442;52.716;23.560;2023-08-07T00:14:29;99506.68;;;21.74;71.52
70521;BME280;58442;52.716;23.560;2023-08-07T00:16:30;99519.74;;;21.73;71.66
70521;BME280;58442;52.716;23.560;2023-08-07T00:18:31;99520.97;;;21.72;71.69
70521;BME280;58442;52.716;23.560;2023-08-07T00:20:42;99531.27;;;21.72;71.74
70521;BME280;58442;52.716;23.560;2023-08-07T00:22:43;99525.42;;;21.70;71.83
70521;BME280;58442;52.716;23.560;2023-08-07T00:24:44;99533.72;;;21.70;71.85
70521;BME280;58442;52.716;23.560;2023-08-07T00:26:46;99547.55;;;21.70;71.84
70521;BME280;58442;52.716;23.560;2023-08-07T00:28:57;99546.78;;;21.69;71.86
70521;BME280;58442;52.716;23.560;2023-08-07T00:30:58;99561.81;;;21.68;71.89
70521;BME280;58442;52.716;23.560;2023-08-07T00:32:59;99574.44;;;21.69;71.91
70521;BME280;58442;52.716;23.560;2023-08-07T00:35:01;99602.52;;;21.68;71.92
70521;BME280;58442;52.716;23.560;2023-08-07T00:37:11;99618.03;;;21.65;71.99
70521;BME280;58442;52.716;23.560;2023-08-07T00:39:12;99637.08;;;21.63;72.07
70521;BME280;58442;52.716;23.560;2023-08-07T00:41:16;99644.60;;;21.63;72.09
70521;BME280;58442;52.716;23.560;2023-08-07T00:43:17;99654.10;;;21.62;72.13
70521;BME280;58442;52.716;23.560;2023-08-07T00:45:26;99634.42;;;21.60;72.16
70521;BME280;58442;52.716;23.560;2023-08-07T00:47:28;99630.88;;;21.59;72.16
70521;BME280;58442;52.716;23.560;2023-08-07T00:49:29;99630.58;;;21.57;72.18
70521;BME280;58442;52.716;23.560;2023-08-07T00:51:31;99637.77;;;21.54;72.21
70521;BME280;58442;52.716;23.560;2023-08-07T00:53:41;99625.94;;;21.54;72.24
70521;BME280;58442;52.716;23.560;2023-08-07T00:55:44;99624.39;;;21.53;72.28
70521;BME280;58442;52.716;23.560;2023-08-07T00:57:46;99614.55;;;21.52;72.25
70521;BME280;58442;52.716;23.560;2023-08-07T00:59:47;99634.05;;;21.48;72.25
70521;BME280;58442;52.716;23.560;2023-08-07T01:01:55;99629.53;;;21.42;72.35
70521;BME280;58442;52.716;23.560;2023-08-07T01:03:56;99624.89;;;21.39;72.40
70521;BME280;58442;52.716;23.560;2023-08-07T01:05:58;99620.28;;;21.36;72.35
70521;BME280;58442;52.716;23.560;2023-08-07T01:08:00;99617.93;;;21.34;72.26
70521;BME280;58442;52.716;23.560;2023-08-07T01:10:10;99608.87;;;21.34;72.13
70521;BME280;58442;52.716;23.560;2023-08-07T01:12:22;99622.05;;;21.29;71.98
70521;BME280;58442;52.716;23.560;2023-08-07T01:14:30;99615.53;;;21.23;71.95
70521;BME280;58442;52.716;23.560;2023-08-07T01:16:48;99609.79;;;21.18;71.95
70521;BME280;58442;52.716;23.560;2023-08-07T01:18:52;99589.81;;;21.14;71.92
70521;BME280;58442;52.716;23.560;2023-08-07T01:20:55;99587.48;;;21.12;71.85
70521;BME280;58442;52.716;23.560;2023-08-07T01:22:57;99577.79;;;21.08;71.76
70521;BME280;58442;52.716;23.560;2023-08-07T01:24:58;99570.05;;;21.02;71.75
70521;BME280;58442;52.716;23.560;2023-08-07T01:27:24;99567.09;;;20.97;71.67
70521;BME280;58442;52.716;23.560;2023-08-07T01:29:17;99554.74;;;20.89;71.65
70521;BME280;58442;52.716;23.560;2023-08-07T01:31:26;99545.16;;;20.81;71.68
70521;BME280;58442;52.716;23.560;2023-08-07T01:33:57;99538.66;;;20.74;71.70
70521;BME280;58442;52.716;23.560;2023-08-07T01:35:44;99551.80;;;20.70;71.76
70521;BME280;58442;52.716;23.560;2023-08-07T01:37:48;99544.88;;;20.66;71.81
70521;BME280;58442;52.716;23.560;2023-08-07T01:39:52;99515.37;;;20.63;71.78
70521;BME280;58442;52.716;23.560;2023-08-07T01:41:55;99510.75;;;20.60;71.76
70521;BME280;58442;52.716;23.560;2023-08-07T01:43:57;99510.86;;;20.56;71.70
70521;BME280;58442;52.716;23.560;2023-08-07T01:45:59;99518.05;;;20.54;71.65
70521;BME280;58442;52.716;23.560;2023-08-07T01:48:01;99511.09;;;20.49;71.67
70521;BME280;58442;52.716;23.560;2023-08-07T01:50:03;99528.55;;;20.46;71.64
70521;BME280;58442;52.716;23.560;2023-08-07T01:52:06;99540.57;;;20.39;71.69
70521;BME280;58442;52.716;23.560;2023-08-07T01:54:08;99539.13;;;20.35;71.79
70521;BME280;58442;52.716;23.560;2023-08-07T01:56:16;99536.48;;;20.31;71.84
70521;BME280;58442;52.716;23.560;2023-08-07T01:58:17;99540.90;;;20.29;71.85
70521;BME280;58442;52.716;23.560;2023-08-07T02:00:19;99507.78;;;20.29;71.83
70521;BME280;58442;52.716;23.560;2023-08-07T02:02:20;99539.36;;;20.28;71.76
70521;BME280;58442;52.716;23.560;2023-08-07T02:04:30;99558.45;;;20.22;71.76
70521;BME280;58442;52.716;23.560;2023-08-07T02:06:32;99578.11;;;20.11;72.01
70521;BME280;58442;52.716;23.560;2023-08-07T02:08:33;99594.30;;;20.09;72.15
70521;BME280;58442;52.716;23.560;2023-08-07T02:10:34;99617.26;;;20.06;72.16
70521;BME280;58442;52.716;23.560;2023-08-07T02:12:45;99640.20;;;20.03;72.19
70521;BME280;58442;52.716;23.560;2023-08-07T02:14:46;99628.84;;;20.01;72.25
70521;BME280;58442;52.716;23.560;2023-08-07T02:16:48;99632.04;;;20.00;72.19
70521;BME280;58442;52.716;23.560;2023-08-07T02:18:49;99632.80;;;20.00;72.26
70521;BME280;58442;52.716;23.560;2023-08-07T02:21:00;99628.50;;;19.99;72.21
70521;BME280;58442;52.716;23.560;2023-08-07T02:23:01;99622.99;;;19.99;72.21
70521;BME280;58442;52.716;23.560;2023-08-07T02:25:03;99625.75;;;19.99;72.16
70521;BME280;58442;52.716;23.560;2023-08-07T02:27:05;99626.20;;;19.98;72.14
70521;BME280;58442;52.716;23.560;2023-08-07T02:29:14;99619.91;;;19.97;72.13
70521;BME280;58442;52.716;23.560;2023-08-07T02:31:16;99630.14;;;19.97;72.15
70521;BME280;58442;52.716;23.560;2023-08-07T02:33:17;99632.57;;;19.94;72.17
70521;BME280;58442;52.716;23.560;2023-08-07T02:35:18;99653.09;;;19.93;72.21
70521;BME280;58442;52.716;23.560;2023-08-07T02:37:29;99657.52;;;19.91;72.22
70521;BME280;58442;52.716;23.560;2023-08-07T02:39:30;99668.96;;;19.89;72.28
70521;BME280;58442;52.716;23.560;2023-08-07T02:41:32;99675.36;;;19.86;72.29
70521;BME280;58442;52.716;23.560;2023-08-07T02:43:33;99678.55;;;19.85;72.34
70521;BME280;58442;52.716;23.560;2023-08-07T02:45:44;99666.76;;;19.84;72.38
70521;BME280;58442;52.716;23.560;2023-08-07T02:47:45;99688.05;;;19.84;72.34
70521;BME280;58442;52.716;23.560;2023-08-07T02:49:47;99706.21;;;19.81;72.36
70521;BME280;58442;52.716;23.560;2023-08-07T02:51:48;99699.16;;;19.80;72.39
70521;BME280;58442;52.716;23.560;2023-08-07T02:53:58;99695.19;;;19.81;72.38
70521;BME280;58442;52.716;23.560;2023-08-07T02:56:00;99673.56;;;19.80;72.37
70521;BME280;58442;52.716;23.560;2023-08-07T02:58:01;99659.45;;;19.78;72.32
70521;BME280;58442;52.716;23.560;2023-08-07T03:00:03;99651.18;;;19.78;72.25
70521;BME280;58442;52.716;23.560;2023-08-07T03:02:13;99663.07;;;19.75;72.20
70521;BME280;58442;52.716;23.560;2023-08-07T03:04:14;99669.02;;;19.73;72.21
70521;BME280;58442;52.716;23.560;2023-08-07T03:06:16;99676.19;;;19.71;72.21
70521;BME280;58442;52.716;23.560;2023-08-07T03:08:17;99679.03;;;19.67;72.30
70521;BME280;58442;52.716;23.560;2023-08-07T03:10:28;99694.47;;;19.64;72.42
70521;BME280;58442;52.716;23.560;2023-08-07T03:12:29;99703.95;;;19.63;72.49
70521;BME280;58442;52.716;23.560;2023-08-07T03:14:32;99706.71;;;19.63;72.55
70521;BME280;58442;52.716;23.560;2023-08-07T03:16:33;99704.37;;;19.62;72.55
70521;BME280;58442;52.716;23.560;2023-08-07T03:18:43;99713.07;;;19.60;72.58
70521;BME280;58442;52.716;23.560;2023-08-07T03:20:45;99722.22;;;19.57;72.67
70521;BME280;58442;52.716;23.560;2023-08-07T03:22:46;99721.84;;;19.55;72.73
70521;BME280;58442;52.716;23.560;2023-08-07T03:24:48;99725.40;;;19.56;72.76
70521;BME280;58442;52.716;23.560;2023-08-07T03:26:57;99685.59;;;19.57;72.76
70521;BME280;58442;52.716;23.560;2023-08-07T03:28:59;99633.22;;;19.57;72.75
70521;BME280;58442;52.716;23.560;2023-08-07T03:31:01;99616.67;;;19.57;72.68
70521;BME280;58442;52.716;23.560;2023-08-07T03:33:02;99639.95;;;19.56;72.67
70521;BME280;58442;52.716;23.560;2023-08-07T03:35:12;99636.38;;;19.55;72.69
70521;BME280;58442;52.716;23.560;2023-08-07T03:37:13;99639.14;;;19.55;72.72
70521;BME280;58442;52.716;23.560;2023-08-07T03:39:15;99655.34;;;19.53;72.72
70521;BME280;58442;52.716;23.560;2023-08-07T03:41:16;99656.56;;;19.52;72.80
70521;BME280;58442;52.716;23.560;2023-08-07T03:43:27;99646.30;;;19.53;72.81
70521;BME280;58442;52.716;23.560;2023-08-07T03:45:28;99651.49;;;19.51;72.83
70521;BME280;58442;52.716;23.560;2023-08-07T03:47:29;99661.30;;;19.52;72.84
70521;BME280;58442;52.716;23.560;2023-08-07T03:49:30;99653.48;;;19.50;72.81
70521;BME280;58442;52.716;23.560;2023-08-07T03:51:41;99639.70;;;19.50;72.83
70521;BME280;58442;52.716;23.560;2023-08-07T03:53:43;99643.67;;;19.49;72.79
70521;BME280;58442;52.716;23.560;2023-08-07T03:55:49;99648.04;;;19.47;72.79
70521;BME280;58442;52.716;23.560;2023-08-07T03:57:52;99661.48;;;19.45;72.84
70521;BME280;58442;52.716;23.560;2023-08-07T03:59:56;99665.45;;;19.44;72.87
70521;BME280;58442;52.716;23.560;2023-08-07T04:01:58;99655.21;;;19.44;72.81
70521;BME280;58442;52.716;23.560;2023-08-07T04:04:00;99663.91;;;19.43;72.72
70521;BME280;58442;52.716;23.560;2023-08-07T04:06:01;99667.09;;;19.41;72.65
70521;BME280;58442;52.716;23.560;2023-08-07T04:08:11;99662.45;;;19.38;72.62
70521;BME280;58442;52.716;23.560;2023-08-07T04:10:12;99657.02;;;19.34;72.68
70521;BME280;58442;52.716;23.560;2023-08-07T04:12:14;99647.64;;;19.32;72.68
70521;BME280;58442;52.716;23.560;2023-08-07T04:14:15;99636.29;;;19.30;72.69
70521;BME280;58442;52.716;23.560;2023-08-07T04:16:25;99644.20;;;19.28;72.70
70521;BME280;58442;52.716;23.560;2023-08-07T04:18:27;99654.89;;;19.26;72.73
70521;BME280;58442;52.716;23.560;2023-08-07T04:20:28;99661.16;;;19.26;72.73
70521;BME280;58442;52.716;23.560;2023-08-07T04:22:29;99657.30;;;19.24;72.73
70521;BME280;58442;52.716;23.560;2023-08-07T04:24:40;99654.98;;;19.22;72.75
70521;BME280;58442;52.716;23.560;2023-08-07T04:26:41;99663.66;;;19.21;72.70
70521;BME280;58442;52.716;23.560;2023-08-07T04:28:43;99668.50;;;19.17;72.73
70521;BME280;58442;52.716;23.560;2023-08-07T04:30:45;99673.31;;;19.12;72.72
70521;BME280;58442;52.716;23.560;2023-08-07T04:32:55;99691.16;;;19.08;72.82
70521;BME280;58442;52.716;23.560;2023-08-07T04:34:56;99697.95;;;19.03;72.86
70521;BME280;58442;52.716;23.560;2023-08-07T04:36:57;99701.98;;;18.99;72.96
70521;BME280;58442;52.716;23.560;2023-08-07T04:38:59;99711.12;;;18.96;73.02
70521;BME280;58442;52.716;23.560;2023-08-07T04:41:09;99719.80;;;18.94;72.99
70521;BME280;58442;52.716;23.560;2023-08-07T04:43:11;99715.48;;;18.93;72.97
70521;BME280;58442;52.716;23.560;2023-08-07T04:45:12;99709.64;;;18.91;72.91
70521;BME280;58442;52.716;23.560;2023-08-07T04:47:14;99713.27;;;18.88;72.89
70521;BME280;58442;52.716;23.560;2023-08-07T04:49:24;99722.70;;;18.87;72.85
70521;BME280;58442;52.716;23.560;2023-08-07T04:51:25;99734.59;;;18.84;72.83
70521;BME280;58442;52.716;23.560;2023-08-07T04:53:27;99724.45;;;18.81;72.92
70521;BME280;58442;52.716;23.560;2023-08-07T04:55:28;99743.34;;;18.79;72.97
70521;BME280;58442;52.716;23.560;2023-08-07T04:57:39;99734.75;;;18.77;72.95
70521;BME280;58442;52.716;23.560;2023-08-07T04:59:40;99743.43;;;18.75;73.01
70521;BME280;58442;52.716;23.560;2023-08-07T05:01:41;99739.91;;;18.75;73.00
70521;BME280;58442;52.716;23.560;2023-08-07T05:03:43;99741.95;;;18.71;73.05
70521;BME280;58442;52.716;23.560;2023-08-07T05:06:00;99730.60;;;18.69;73.09
70521;BME280;58442;52.716;23.560;2023-08-07T05:08:01;99748.32;;;18.68;73.12
70521;BME280;58442;52.716;23.560;2023-08-07T05:10:04;99746.34;;;18.68;73.09
70521;BME280;58442;52.716;23.560;2023-08-07T05:12:06;99738.08;;;18.68;73.01
70521;BME280;58442;52.716;23.560;2023-08-07T05:14:08;99730.27;;;18.67;72.88
70521;BME280;58442;52.716;23.560;2023-08-07T05:16:09;99733.40;;;18.65;72.93
70521;BME280;58442;52.716;23.560;2023-08-07T05:18:11;99729.46;;;18.66;72.90
70521;BME280;58442;52.716;23.560;2023-08-07T05:20:12;99722.00;;;18.67;72.84
70521;BME280;58442;52.716;23.560;2023-08-07T05:22:23;99711.34;;;18.69;72.83
70521;BME280;58442;52.716;23.560;2023-08-07T05:24:24;99712.88;;;18.70;72.82
70521;BME280;58442;52.716;23.560;2023-08-07T05:26:26;99712.10;;;18.69;72.80
70521;BME280;58442;52.716;23.560;2023-08-07T05:28:29;99719.94;;;18.71;72.76
70521;BME280;58442;52.716;23.560;2023-08-07T05:30:38;99717.95;;;18.71;72.74
70521;BME280;58442;52.716;23.560;2023-08-07T05:32:40;99714.42;;;18.71;72.75
70521;BME280;58442;52.716;23.560;2023-08-07T05:34:42;99705.40;;;18.70;72.71
70521;BME280;58442;52.716;23.560;2023-08-07T05:36:44;99708.15;;;18.70;72.70
70521;BME280;58442;52.716;23.560;2023-08-07T05:38:52;99707.72;;;18.72;72.64
70521;BME280;58442;52.716;23.560;2023-08-07T05:40:53;99709.27;;;18.73;72.60
70521;BME280;58442;52.716;23.560;2023-08-07T05:42:55;99702.15;;;18.75;72.55
70521;BME280;58442;52.716;23.560;2023-08-07T05:44:57;99703.36;;;18.74;72.53
70521;BME280;58442;52.716;23.560;2023-08-07T05:47:07;99697.07;;;18.74;72.55
70521;BME280;58442;52.716;23.560;2023-08-07T05:49:08;99703.42;;;18.71;72.56
70521;BME280;58442;52.716;23.560;2023-08-07T05:51:10;99703.52;;;18.67;72.61
70521;BME280;58442;52.716;23.560;2023-08-07T05:53:11;99695.29;;;18.64;72.63
70521;BME280;58442;52.716;23.560;2023-08-07T05:55:22;99689.45;;;18.62;72.55
70521;BME280;58442;52.716;23.560;2023-08-07T05:57:23;99695.79;;;18.58;72.47
70521;BME280;58442;52.716;23.560;2023-08-07T05:59:24;99708.01;;;18.57;72.49
70521;BME280;58442;52.716;23.560;2023-08-07T06:01:26;99701.73;;;18.57;72.49
70521;BME280;58442;52.716;23.560;2023-08-07T06:03:36;99689.95;;;18.56;72.50
70521;BME280;58442;52.716;23.560;2023-08-07T06:05:38;99691.49;;;18.57;72.46
70521;BME280;58442;52.716;23.560;2023-08-07T06:07:39;99684.45;;;18.56;72.43
70521;BME280;58442;52.716;23.560;2023-08-07T06:09:40;99696.66;;;18.55;72.42
70521;BME280;58442;52.716;23.560;2023-08-07T06:11:51;99703.00;;;18.52;72.44
70521;BME280;58442;52.716;23.560;2023-08-07T06:13:53;99704.63;;;18.50;72.45
70521;BME280;58442;52.716;23.560;2023-08-07T06:15:54;99711.77;;;18.47;72.40
70521;BME280;58442;52.716;23.560;2023-08-07T06:17:55;99725.16;;;18.45;72.39
70521;BME280;58442;52.716;23.560;2023-08-07T06:20:08;99734.72;;;18.41;72.41
70521;BME280;58442;52.716;23.560;2023-08-07T06:22:12;99740.27;;;18.37;72.51
70521;BME280;58442;52.716;23.560;2023-08-07T06:24:13;99756.44;;;18.35;72.57
70521;BME280;58442;52.716;23.560;2023-08-07T06:26:15;99753.34;;;18.33;72.60
70521;BME280;58442;52.716;23.560;2023-08-07T06:28:21;99732.51;;;18.32;72.65
70521;BME280;58442;52.716;23.560;2023-08-07T06:30:22;99723.92;;;18.30;72.67
70521;BME280;58442;52.716;23.560;2023-08-07T06:32:25;99729.41;;;18.30;72.67
70521;BME280;58442;52.716;23.560;2023-08-07T06:34:26;99741.62;;;18.29;72.68
70521;BME280;58442;52.716;23.560;2023-08-07T06:36:35;99738.53;;;18.27;72.75
70521;BME280;58442;52.716;23.560;2023-08-07T06:38:37;99723.23;;;18.26;72.78
70521;BME280;58442;52.716;23.560;2023-08-07T06:40:38;99707.13;;;18.24;72.75
70521;BME280;58442;52.716;23.560;2023-08-07T06:42:40;99696.13;;;18.24;72.75
70521;BME280;58442;52.716;23.560;2023-08-07T06:44:50;99680.77;;;18.27;72.71
70521;BME280;58442;52.716;23.560;2023-08-07T06:46:51;99673.98;;;18.31;72.64
70521;BME280;58442;52.716;23.560;2023-08-07T06:48:53;99665.99;;;18.37;72.55
70521;BME280;58442;52.716;23.560;2023-08-07T06:50:55;99672.48;;;18.47;72.41
70521;BME280;58442;52.716;23.560;2023-08-07T06:53:05;99667.43;;;18.62;72.28
70521;BME280;58442;52.716;23.560;2023-08-07T06:55:07;99687.91;;;18.61;72.45
70521;BME280;58442;52.716;23.560;2023-08-07T06:57:08;99689.95;;;18.56;72.61
70521;BME280;58442;52.716;23.560;2023-08-07T06:59:10;99674.64;;;18.55;72.67
70521;BME280;58442;52.716;23.560;2023-08-07T07:01:19;99652.63;;;18.55;72.64
70521;BME280;58442;52.716;23.560;2023-08-07T07:03:21;99659.25;;;18.58;72.56
70521;BME280;58442;52.716;23.560;2023-08-07T07:05:23;99676.89;;;18.61;72.51
70521;BME280;58442;52.716;23.560;2023-08-07T07:07:24;99691.77;;;18.63;72.48
70521;BME280;58442;52.716;23.560;2023-08-07T07:09:34;99694.08;;;18.65;72.47
70521;BME280;58442;52.716;23.560;2023-08-07T07:11:36;99707.44;;;18.66;72.43
70521;BME280;58442;52.716;23.560;2023-08-07T07:13:38;99709.78;;;18.68;72.42
70521;BME280;58442;52.716;23.560;2023-08-07T07:15:40;99722.25;;;18.72;72.37
70521;BME280;58442;52.716;23.560;2023-08-07T07:17:49;99721.31;;;18.79;72.23
70521;BME280;58442;52.716;23.560;2023-08-07T07:19:50;99722.80;;;18.83;72.13
70521;BME280;58442;52.716;23.560;2023-08-07T07:22:43;99720.47;;;18.82;72.15
70521;BME280;58442;52.716;23.560;2023-08-07T07:24:45;99726.76;;;18.82;72.16
70521;BME280;58442;52.716;23.560;2023-08-07T07:26:46;99721.69;;;18.81;72.13
70521;BME280;58442;52.716;23.560;2023-08-07T07:28:58;99717.36;;;18.80;72.03
70521;BME280;58442;52.716;23.560;2023-08-07T07:30:59;99724.84;;;18.79;71.99
70521;BME280;58442;52.716;23.560;2023-08-07T07:33:01;99721.31;;;18.79;71.97
70521;BME280;58442;52.716;23.560;2023-08-07T07:35:02;99723.40;;;18.75;71.90
70521;BME280;58442;52.716;23.560;2023-08-07T07:37:13;99727.86;;;18.69;72.03
70521;BME280;58442;52.716;23.560;2023-08-07T07:39:17;99732.62;;;18.65;72.01
70521;BME280;58442;52.716;23.560;2023-08-07T07:41:18;99737.45;;;18.61;72.11
70521;BME280;58442;52.716;23.560;2023-08-07T07:43:20;99743.01;;;18.57;72.09
70521;BME280;58442;52.716;23.560;2023-08-07T07:45:27;99744.99;;;18.56;72.03
70521;BME280;58442;52.716;23.560;2023-08-07T07:47:29;99757.27;;;18.52;72.18
70521;BME280;58442;52.716;23.560;2023-08-07T07:49:30;99755.70;;;18.51;72.03
70521;BME280;58442;52.716;23.560;2023-08-07T07:51:31;99752.62;;;18.49;72.01
70521;BME280;58442;52.716;23.560;2023-08-07T07:53:42;99753.39;;;18.49;71.99
70521;BME280;58442;52.716;23.560;2023-08-07T07:55:47;99751.75;;;18.52;71.92
70521;BME280;58442;52.716;23.560;2023-08-07T07:57:49;99745.41;;;18.55;71.82
70521;BME280;58442;52.716;23.560;2023-08-07T07:59:50;99743.01;;;18.57;71.78
70521;BME280;58442;52.716;23.560;2023-08-07T08:01:57;99747.24;;;18.62;71.73
70521;BME280;58442;52.716;23.560;2023-08-07T08:03:58;99756.18;;;18.66;71.70
70521;BME280;58442;52.716;23.560;2023-08-07T08:05:59;99751.11;;;18.64;71.79
70521;BME280;58442;52.716;23.560;2023-08-07T08:08:01;99749.88;;;18.69;71.85
70521;BME280;58442;52.716;23.560;2023-08-07T08:10:11;99753.67;;;18.75;71.83
70521;BME280;58442;52.716;23.560;2023-08-07T08:12:14;99755.50;;;18.81;71.77
70521;BME280;58442;52.716;23.560;2023-08-07T08:14:15;99755.41;;;18.85;71.73
70521;BME280;58442;52.716;23.560;2023-08-07T08:16:17;99758.16;;;18.85;71.61
70521;BME280;58442;52.716;23.560;2023-08-07T08:18:26;99758.93;;;18.85;71.43
70521;BME280;58442;52.716;23.560;2023-08-07T08:20:27;99755.41;;;18.85;71.55
70521;BME280;58442;52.716;23.560;2023-08-07T08:22:32;99763.23;;;18.86;71.56
70521;BME280;58442;52.716;23.560;2023-08-07T08:24:35;99754.13;;;18.90;71.47
70521;BME280;58442;52.716;23.560;2023-08-07T08:26:41;99756.79;;;18.93;71.43
70521;BME280;58442;52.716;23.560;2023-08-07T08:28:42;99748.80;;;18.99;71.38
70521;BME280;58442;52.716;23.560;2023-08-07T08:30:43;99747.18;;;19.01;71.38
70521;BME280;58442;52.716;23.560;2023-08-07T08:32:45;99754.58;;;19.21;70.97
70521;BME280;58442;52.716;23.560;2023-08-07T08:34:56;99755.79;;;19.20;71.10
70521;BME280;58442;52.716;23.560;2023-08-07T08:36:57;99755.11;;;19.16;71.26
70521;BME280;58442;52.716;23.560;2023-08-07T08:38:58;99773.69;;;19.11;71.34
70521;BME280;58442;52.716;23.560;2023-08-07T08:41:02;99765.93;;;19.06;71.39
70521;BME280;58442;52.716;23.560;2023-08-07T08:43:12;99775.91;;;19.00;71.43
70521;BME280;58442;52.716;23.560;2023-08-07T08:45:14;99776.43;;;18.95;71.41
70521;BME280;58442;52.716;23.560;2023-08-07T08:47:16;99776.16;;;18.90;71.41
70521;BME280;58442;52.716;23.560;2023-08-07T08:49:23;99776.59;;;18.88;71.39
70521;BME280;58442;52.716;23.560;2023-08-07T08:51:29;99778.14;;;18.89;71.35
70521;BME280;58442;52.716;23.560;2023-08-07T08:53:32;99776.06;;;18.93;71.29
70521;BME280;58442;52.716;23.560;2023-08-07T08:55:33;99781.94;;;18.95;71.25
70521;BME280;58442;52.716;23.560;2023-08-07T08:57:35;99783.92;;;18.95;71.25
70521;BME280;58442;52.716;23.560;2023-08-07T08:59:41;99779.26;;;18.92;71.25
70521;BME280;58442;52.716;23.560;2023-08-07T09:01:44;99797.41;;;18.89;71.27
70521;BME280;58442;52.716;23.560;2023-08-07T09:03:46;99799.79;;;18.87;71.33
70521;BME280;58442;52.716;23.560;2023-08-07T09:05:47;99802.55;;;18.87;71.28
70521;BME280;58442;52.716;23.560;2023-08-07T09:07:55;99808.05;;;18.87;71.19
70521;BME280;58442;52.716;23.560;2023-08-07T09:09:56;99806.17;;;18.84;71.17
70521;BME280;58442;52.716;23.560;2023-08-07T09:12:01;99802.30;;;18.81;71.03
70521;BME280;58442;52.716;23.560;2023-08-07T09:14:04;99818.82;;;18.81;70.96
70521;BME280;58442;52.716;23.560;2023-08-07T09:16:10;99812.54;;;18.81;70.91
70521;BME280;58442;52.716;23.560;2023-08-07T09:18:12;99809.70;;;18.84;70.64
70521;BME280;58442;52.716;23.560;2023-08-07T09:20:14;99809.89;;;18.94;70.54
70521;BME280;58442;52.716;23.560;2023-08-07T09:22:15;99803.81;;;19.02;70.39
70521;BME280;58442;52.716;23.560;2023-08-07T09:24:24;99817.85;;;19.08;70.30
70521;BME280;58442;52.716;23.560;2023-08-07T09:26:25;99811.04;;;19.12;70.22
70521;BME280;58442;52.716;23.560;2023-08-07T09:28:28;99817.26;;;19.17;70.13
70521;BME280;58442;52.716;23.560;2023-08-07T09:30:34;99824.16;;;19.25;70.08
70521;BME280;58442;52.716;23.560;2023-08-07T09:32:39;99828.46;;;19.42;69.81
70521;BME280;58442;52.716;23.560;2023-08-07T09:34:41;99831.48;;;19.48;69.79
70521;BME280;58442;52.716;23.560;2023-08-07T09:36:42;99835.72;;;19.52;69.71
70521;BME280;58442;52.716;23.560;2023-08-07T09:38:49;99845.70;;;19.46;69.76
70521;BME280;58442;52.716;23.560;2023-08-07T09:40:53;99846.91;;;19.45;69.75
70521;BME280;58442;52.716;23.560;2023-08-07T09:43:00;99849.66;;;19.45;69.68
70521;BME280;58442;52.716;23.560;2023-08-07T09:45:01;99856.46;;;19.40;69.58
70521;BME280;58442;52.716;23.560;2023-08-07T09:49:16;99850.34;;;19.33;69.59
70521;BME280;58442;52.716;23.560;2023-08-07T09:51:17;99849.23;;;19.30;69.52
70521;BME280;58442;52.716;23.560;2023-08-07T09:53:26;99862.22;;;19.30;69.47
70521;BME280;58442;52.716;23.560;2023-08-07T09:55:28;99854.80;;;19.27;69.38
70521;BME280;58442;52.716;23.560;2023-08-07T09:57:30;99851.71;;;19.25;69.29
70521;BME280;58442;52.716;23.560;2023-08-07T09:59:34;99848.17;;;19.24;69.17
70521;BME280;58442;52.716;23.560;2023-08-07T10:01:38;99853.69;;;19.24;69.08
70521;BME280;58442;52.716;23.560;2023-08-07T10:03:41;99860.31;;;19.27;68.94
70521;BME280;58442;52.716;23.560;2023-08-07T10:05:43;99851.98;;;19.30;68.83
70521;BME280;58442;52.716;23.560;2023-08-07T10:07:45;99855.41;;;19.34;68.70
70521;BME280;58442;52.716;23.560;2023-08-07T10:09:47;99863.27;;;19.36;68.69
70521;BME280;58442;52.716;23.560;2023-08-07T10:11:49;99855.34;;;19.38;68.64
70521;BME280;58442;52.716;23.560;2023-08-07T10:13:54;99858.44;;;19.40;68.63
70521;BME280;58442;52.716;23.560;2023-08-07T10:15:58;99855.68;;;19.40;68.64
70521;BME280;58442;52.716;23.560;2023-08-07T10:18:00;99853.36;;;19.38;68.67
70521;BME280;58442;52.716;23.560;2023-08-07T10:20:01;99852.93;;;19.40;68.65
70521;BME280;58442;52.716;23.560;2023-08-07T10:22:09;99861.63;;;19.38;68.71
70521;BME280;58442;52.716;23.560;2023-08-07T10:24:11;99864.05;;;19.36;68.72
70521;BME280;58442;52.716;23.560;2023-08-07T10:26:13;99861.35;;;19.33;68.73
70521;BME280;58442;52.716;23.560;2023-08-07T10:28:17;99859.47;;;19.30;68.66
70521;BME280;58442;52.716;23.560;2023-08-07T10:30:24;99862.29;;;19.26;68.70
70521;BME280;58442;52.716;23.560;2023-08-07T10:32:27;99861.95;;;19.24;68.71
70521;BME280;58442;52.716;23.560;2023-08-07T10:34:30;99861.62;;;19.22;68.62
70521;BME280;58442;52.716;23.560;2023-08-07T10:36:35;99866.75;;;19.20;68.53
70521;BME280;58442;52.716;23.560;2023-08-07T10:38:38;99882.23;;;19.14;68.54
70521;BME280;58442;52.716;23.560;2023-08-07T10:42:58;99909.15;;;19.06;68.62
70521;BME280;58442;52.716;23.560;2023-08-07T10:45:01;99908.04;;;19.04;68.60
70521;BME280;58442;52.716;23.560;2023-08-07T10:47:02;99910.84;;;19.00;68.64
70521;BME280;58442;52.716;23.560;2023-08-07T10:49:04;99913.69;;;18.97;68.63
70521;BME280;58442;52.716;23.560;2023-08-07T10:51:06;99918.85;;;18.95;68.66